createdAt,value
2018-08-13T00:01:26.571Z,2.00
2018-08-13T00:03:55.180Z,1.80
2018-08-13T00:06:23.754Z,1.90
2018-08-13T00:08:52.308Z,2.00
2018-08-13T00:11:20.938Z,1.87
2018-08-13T00:13:49.506Z,1.60
2018-08-13T00:16:48.751Z,1.90
2018-08-13T00:19:17.348Z,1.87
2018-08-13T00:21:45.896Z,1.80
2018-08-13T00:24:14.431Z,1.87
2018-08-13T00:26:43.015Z,1.97
2018-08-13T00:29:11.611Z,1.70
2018-08-13T00:31:40.159Z,2.03
2018-08-13T00:34:08.717Z,1.90
2018-08-13T00:36:37.253Z,1.50
2018-08-13T00:39:08.912Z,1.73
2018-08-13T00:41:37.959Z,1.80
2018-08-13T00:44:06.604Z,1.97
2018-08-13T00:46:35.305Z,1.73
2018-08-13T00:49:04.858Z,1.80
2018-08-13T00:51:33.819Z,1.90
2018-08-13T00:54:02.406Z,1.97
2018-08-13T00:57:01.711Z,1.50
2018-08-13T00:59:30.276Z,1.70
2018-08-13T01:01:58.838Z,1.93
2018-08-13T01:04:27.415Z,1.50
2018-08-13T01:06:56.037Z,1.60
2018-08-13T01:09:24.654Z,1.70
2018-08-13T01:11:53.230Z,1.67
2018-08-13T01:14:21.813Z,1.70
2018-08-13T01:16:50.352Z,1.50
2018-08-13T01:19:18.954Z,1.73
2018-08-13T01:21:47.552Z,1.70
2018-08-13T01:24:16.139Z,1.93
2018-08-13T01:26:44.713Z,1.50
2018-08-13T01:29:13.279Z,1.60
2018-08-13T01:31:41.815Z,1.73
2018-08-13T01:34:10.562Z,1.63
2018-08-13T01:36:39.144Z,1.77
2018-08-13T01:39:09.405Z,1.50
2018-08-13T01:41:38.023Z,1.40
2018-08-13T01:44:06.983Z,1.60
2018-08-13T01:46:35.703Z,1.70
2018-08-13T01:49:04.498Z,1.33
2018-08-13T01:51:33.103Z,1.70
2018-08-13T01:54:01.683Z,1.60
2018-08-13T01:56:30.252Z,1.70
2018-08-13T01:58:58.852Z,1.60
2018-08-13T02:01:27.618Z,1.90
2018-08-13T02:03:56.132Z,1.50
2018-08-13T02:06:24.706Z,1.37
2018-08-13T02:08:53.251Z,1.50
2018-08-13T02:11:21.802Z,1.80
2018-08-13T02:13:50.349Z,1.90
2018-08-13T02:16:18.950Z,1.60
2018-08-13T02:18:47.523Z,1.47
2018-08-13T02:21:16.066Z,1.60
2018-08-13T02:23:44.625Z,1.43
2018-08-13T02:26:13.242Z,1.30
2018-08-13T02:28:41.796Z,1.73
2018-08-13T02:31:10.378Z,1.40
2018-08-13T02:33:38.960Z,1.50
2018-08-13T02:36:07.592Z,1.60
2018-08-13T02:38:36.167Z,1.87
2018-08-13T02:41:04.772Z,1.70
2018-08-13T02:43:33.311Z,1.60
2018-08-13T02:46:01.860Z,1.77
2018-08-13T02:48:30.458Z,1.40
2018-08-13T02:50:59.064Z,1.60
2018-08-13T02:53:27.655Z,1.50
2018-08-13T02:55:56.204Z,1.60
2018-08-13T02:58:24.783Z,1.30
2018-08-13T03:00:53.472Z,1.50
2018-08-13T03:03:22.016Z,1.60
2018-08-13T03:05:50.564Z,1.60
2018-08-13T03:08:19.090Z,1.50
2018-08-13T03:10:47.638Z,1.43
2018-08-13T03:13:16.245Z,1.60
2018-08-13T03:15:44.904Z,1.50
2018-08-13T03:18:13.455Z,1.60
2018-08-13T03:20:42.023Z,1.63
2018-08-13T03:23:10.630Z,1.40
2018-08-13T03:25:39.175Z,1.60
2018-08-13T03:28:07.755Z,1.50
2018-08-13T03:30:36.397Z,1.97
2018-08-13T03:33:05.122Z,1.67
2018-08-13T03:35:33.673Z,1.40
2018-08-13T03:38:02.219Z,1.60
2018-08-13T03:40:30.879Z,1.73
2018-08-13T03:42:59.456Z,1.60
2018-08-13T03:45:27.997Z,1.80
2018-08-13T03:47:56.550Z,1.50
2018-08-13T03:50:25.107Z,1.60
2018-08-13T03:52:53.640Z,1.87
2018-08-13T03:55:22.235Z,1.40
2018-08-13T03:57:50.810Z,1.40
2018-08-13T04:00:19.367Z,1.60
2018-08-13T04:02:47.905Z,1.63
2018-08-13T04:05:16.504Z,1.70
2018-08-13T04:07:45.111Z,1.90
2018-08-13T04:10:14.042Z,1.63
2018-08-13T04:12:43.633Z,1.70
2018-08-13T04:15:13.617Z,1.80
2018-08-13T04:17:42.690Z,1.80
2018-08-13T04:20:12.504Z,1.57
2018-08-13T04:22:41.154Z,1.50
2018-08-13T04:25:10.486Z,1.77
2018-08-13T04:27:39.799Z,2.00
2018-08-13T04:30:11.681Z,1.73
2018-08-13T04:32:40.551Z,1.57
2018-08-13T04:35:09.144Z,1.53
2018-08-13T04:37:37.668Z,1.97
2018-08-13T04:40:08.517Z,1.50
2018-08-13T04:42:37.134Z,1.60
2018-08-13T04:45:06.502Z,1.53
2018-08-13T04:47:35.147Z,1.60
2018-08-13T04:50:04.123Z,1.50
2018-08-13T04:52:32.725Z,1.93
2018-08-13T04:55:01.314Z,1.67
2018-08-13T04:57:29.828Z,1.70
2018-08-13T04:59:58.382Z,1.67
2018-08-13T05:02:26.955Z,1.53
2018-08-13T05:04:55.809Z,1.77
2018-08-13T05:07:24.505Z,1.50
2018-08-13T05:09:53.001Z,1.70
2018-08-13T05:12:21.523Z,1.70
2018-08-13T05:14:50.086Z,2.07
2018-08-13T05:17:18.690Z,1.30
2018-08-13T05:19:47.247Z,1.77
2018-08-13T05:22:15.826Z,1.80
2018-08-13T05:24:44.708Z,1.73
2018-08-13T05:27:13.267Z,1.83
2018-08-13T05:29:41.883Z,1.70
2018-08-13T05:32:10.416Z,1.80
2018-08-13T05:34:38.989Z,1.73
2018-08-13T05:37:08.903Z,1.97
2018-08-13T05:39:37.542Z,1.60
2018-08-13T05:42:06.919Z,1.70
2018-08-13T05:44:35.948Z,1.90
2018-08-13T05:47:25.200Z,1.50
2018-08-13T05:49:55.181Z,2.00
2018-08-13T05:52:23.786Z,2.00
2018-08-13T05:54:52.373Z,1.67
2018-08-13T05:57:20.907Z,1.60
2018-08-13T05:59:49.473Z,1.90
2018-08-13T06:02:18.118Z,2.00
2018-08-13T06:04:46.808Z,2.20
2018-08-13T06:07:15.414Z,2.00
2018-08-13T06:09:43.958Z,2.40
2018-08-13T06:12:12.536Z,1.70
2018-08-13T06:14:41.073Z,2.00
2018-08-13T06:17:09.627Z,2.47
2018-08-13T06:19:38.217Z,2.10
2018-08-13T06:22:06.779Z,2.50
2018-08-13T06:24:35.334Z,2.20
2018-08-13T06:27:03.958Z,2.20
2018-08-13T06:29:32.500Z,2.63
2018-08-13T06:32:01.031Z,2.30
2018-08-13T06:34:30.922Z,2.20
2018-08-13T06:36:59.475Z,2.20
2018-08-13T06:39:28.016Z,2.63
2018-08-13T06:41:56.567Z,2.20
2018-08-13T06:44:25.095Z,1.90
2018-08-13T06:46:53.690Z,2.20
2018-08-13T06:49:22.259Z,2.20
2018-08-13T06:51:50.824Z,2.80
2018-08-13T06:54:19.530Z,2.40
2018-08-13T06:56:48.111Z,2.30
2018-08-13T06:59:16.676Z,2.23
2018-08-13T07:01:45.250Z,1.90
2018-08-13T07:04:13.855Z,2.57
2018-08-13T07:06:42.444Z,2.20
2018-08-13T07:09:11.706Z,2.00
2018-08-13T07:11:40.258Z,2.20
2018-08-13T07:14:08.921Z,2.27
2018-08-13T07:16:37.667Z,2.10
2018-08-13T07:19:06.299Z,2.30
2018-08-13T07:21:34.852Z,2.00
2018-08-13T07:24:03.418Z,1.93
2018-08-13T07:26:31.980Z,2.37
2018-08-13T07:29:00.527Z,2.10
2018-08-13T07:31:29.156Z,2.20
2018-08-13T07:33:57.703Z,2.00
2018-08-13T07:36:26.266Z,1.70
2018-08-13T07:38:54.912Z,2.17
2018-08-13T07:41:23.500Z,2.03
2018-08-13T07:43:52.059Z,1.80
2018-08-13T07:46:20.721Z,1.73
2018-08-13T07:48:49.316Z,2.17
2018-08-13T07:51:17.851Z,2.00
2018-08-13T07:53:46.380Z,1.97
2018-08-13T07:56:14.924Z,2.00
2018-08-13T07:58:43.532Z,1.90
2018-08-13T08:01:12.069Z,1.70
2018-08-13T08:03:40.675Z,2.07
2018-08-13T08:06:09.226Z,1.80
2018-08-13T08:08:37.801Z,1.90
2018-08-13T08:11:06.386Z,1.70
2018-08-13T08:13:35.497Z,1.77
2018-08-13T08:16:04.063Z,1.57
2018-08-13T08:18:32.676Z,1.70
2018-08-13T08:21:01.398Z,1.60
2018-08-13T08:23:29.967Z,1.90
2018-08-13T08:25:58.532Z,1.93
2018-08-13T08:28:27.078Z,2.00
2018-08-13T08:30:55.615Z,1.70
2018-08-13T08:33:24.193Z,1.50
2018-08-13T08:35:52.723Z,1.80
2018-08-13T08:38:21.255Z,1.63
2018-08-13T08:40:49.942Z,1.80
2018-08-13T08:43:18.434Z,1.50
2018-08-13T08:45:46.986Z,1.40
2018-08-13T08:48:15.588Z,1.87
2018-08-13T08:50:44.135Z,1.60
2018-08-13T08:53:12.671Z,1.67
2018-08-13T08:55:41.267Z,1.83
2018-08-13T08:58:09.823Z,1.60
2018-08-13T09:00:38.353Z,1.33
2018-08-13T09:03:06.924Z,1.40
2018-08-13T09:05:35.471Z,1.70
2018-08-13T09:08:04.044Z,1.80
2018-08-13T09:10:32.630Z,1.87
2018-08-13T09:13:01.195Z,1.57
2018-08-13T09:15:29.795Z,1.40
2018-08-13T09:20:16.035Z,1.67
2018-08-13T09:22:55.598Z,1.80
2018-08-13T09:25:35.327Z,1.57
2018-08-13T09:30:20.487Z,1.60
2018-08-13T09:33:00.196Z,1.70
2018-08-13T09:35:33.069Z,1.73
2018-08-13T09:38:01.675Z,1.77
2018-08-13T09:40:31.478Z,1.70
2018-08-13T09:43:00.019Z,1.50
2018-08-13T09:45:28.573Z,1.60
2018-08-13T09:47:57.367Z,1.60
2018-08-13T09:50:26.487Z,1.47
2018-08-13T09:52:55.078Z,1.53
2018-08-13T09:55:23.648Z,1.50
2018-08-13T09:57:52.372Z,1.37
2018-08-13T10:00:26.711Z,1.40
2018-08-13T10:02:55.239Z,1.27
2018-08-13T10:05:23.795Z,1.80
2018-08-13T10:07:52.378Z,1.50
2018-08-13T10:10:20.939Z,1.60
2018-08-13T10:12:49.493Z,1.80
2018-08-13T10:15:18.031Z,1.67
2018-08-13T10:17:46.672Z,1.37
2018-08-13T10:20:17.589Z,1.50
2018-08-13T10:22:46.484Z,1.50
2018-08-13T10:25:15.060Z,1.40
2018-08-13T10:27:43.715Z,1.40
2018-08-13T10:30:13.894Z,1.30
2018-08-13T10:32:42.434Z,1.40
2018-08-13T10:35:11.135Z,1.40
2018-08-13T10:37:40.432Z,1.37
2018-08-13T10:40:13.755Z,1.70
2018-08-13T10:42:42.345Z,1.47
2018-08-13T10:45:10.881Z,1.50
2018-08-13T10:47:39.415Z,1.30
2018-08-13T10:50:09.405Z,1.60
2018-08-13T10:52:38.279Z,1.67
2018-08-13T10:55:07.215Z,1.60
2018-08-13T10:57:35.758Z,1.87
2018-08-13T11:00:05.858Z,1.40
2018-08-13T11:02:35.078Z,1.60
2018-08-13T11:05:04.803Z,1.40
2018-08-13T11:07:33.418Z,1.77
2018-08-13T11:10:02.004Z,1.50
2018-08-13T11:12:30.582Z,1.60
2018-08-13T11:14:59.126Z,1.50
2018-08-13T11:17:27.702Z,1.20
2018-08-13T11:19:56.266Z,1.30
2018-08-13T11:22:24.849Z,0.93
2018-08-13T11:24:53.483Z,0.90
2018-08-13T11:27:22.940Z,1.30
2018-08-13T11:30:22.004Z,1.00
2018-08-13T11:32:50.647Z,1.43
2018-08-13T11:35:19.218Z,1.00
2018-08-13T11:37:47.799Z,1.23
2018-08-13T11:40:17.808Z,1.20
2018-08-13T11:42:46.398Z,1.00
2018-08-13T11:45:14.963Z,1.23
2018-08-13T11:47:43.547Z,1.03
2018-08-13T11:50:15.935Z,0.90
2018-08-13T11:52:46.595Z,1.10
2018-08-13T11:55:15.555Z,1.43
2018-08-13T11:57:44.173Z,1.80
2018-08-13T12:00:13.293Z,1.70
2018-08-13T12:02:41.827Z,1.80
2018-08-13T12:05:12.257Z,2.00
2018-08-13T12:07:40.987Z,1.93
2018-08-13T12:10:10.644Z,1.80
2018-08-13T12:12:39.897Z,1.87
2018-08-13T12:15:09.452Z,1.80
2018-08-13T12:17:38.099Z,2.07
2018-08-13T12:20:09.179Z,1.57
2018-08-13T12:22:38.610Z,2.00
2018-08-13T12:25:07.703Z,1.40
2018-08-13T12:27:36.287Z,1.60
2018-08-13T12:30:07.448Z,2.10
2018-08-13T12:32:36.045Z,1.67
2018-08-13T12:35:05.378Z,1.60
2018-08-13T12:37:33.955Z,1.73
2018-08-13T12:40:02.783Z,1.90
2018-08-13T12:42:31.349Z,1.80
2018-08-13T12:44:59.887Z,1.80
2018-08-13T12:47:28.437Z,1.87
2018-08-13T12:49:57.088Z,1.87
2018-08-13T12:52:25.670Z,1.70
2018-08-13T12:54:54.243Z,1.87
2018-08-13T12:57:22.809Z,2.20
2018-08-13T12:59:51.359Z,1.67
2018-08-13T13:02:19.911Z,2.10
2018-08-13T13:04:48.467Z,1.70
2018-08-13T13:07:17.037Z,2.20
2018-08-13T13:10:17.336Z,1.70
2018-08-13T13:12:46.004Z,2.23
2018-08-13T13:15:16.257Z,1.80
2018-08-13T13:17:44.860Z,1.70
2018-08-13T13:20:18.947Z,2.00
2018-08-13T13:22:48.117Z,1.83
2018-08-13T13:25:17.172Z,2.00
2018-08-13T13:27:45.790Z,1.60
2018-08-13T13:30:15.329Z,1.80
2018-08-13T13:32:44.156Z,1.70
2018-08-13T13:35:14.263Z,2.07
2018-08-13T13:37:42.874Z,1.90
2018-08-13T13:40:12.978Z,1.93
2018-08-13T13:42:41.654Z,2.00
2018-08-13T13:45:11.135Z,1.87
2018-08-13T13:47:39.735Z,1.80
2018-08-13T13:50:10.269Z,1.80
2018-08-13T13:52:38.805Z,2.07
2018-08-13T13:55:07.785Z,2.00
2018-08-13T13:57:36.863Z,2.20
2018-08-13T14:00:10.027Z,2.17
2018-08-13T14:02:38.607Z,2.13
2018-08-13T14:05:07.467Z,2.17
2018-08-13T14:07:36.267Z,2.03
2018-08-13T14:10:05.861Z,1.73
2018-08-13T14:12:34.451Z,2.10
2018-08-13T14:15:03.905Z,2.00
2018-08-13T14:17:32.673Z,1.90
2018-08-13T14:20:01.326Z,1.87
2018-08-13T14:22:29.908Z,2.07
2018-08-13T14:24:58.581Z,1.60
2018-08-13T14:27:27.303Z,2.10
2018-08-13T14:29:55.896Z,1.70
2018-08-13T14:32:24.567Z,2.10
2018-08-13T14:34:53.508Z,1.67
2018-08-13T14:37:22.552Z,2.00
2018-08-13T14:39:58.265Z,1.50
2018-08-13T14:42:28.325Z,1.60
2018-08-13T14:44:57.739Z,1.90
2018-08-13T14:47:26.343Z,1.70
2018-08-13T14:49:56.114Z,1.83
2018-08-13T14:52:25.208Z,1.70
2018-08-13T14:54:53.787Z,1.73
2018-08-13T14:57:22.532Z,1.70
2018-08-13T14:59:51.159Z,1.70
2018-08-13T15:02:19.739Z,1.90
2018-08-13T15:04:48.639Z,1.70
2018-08-13T15:07:17.170Z,1.87
2018-08-13T15:09:46.830Z,1.90
2018-08-13T15:12:15.895Z,1.60
2018-08-13T15:14:44.461Z,2.20
2018-08-13T15:17:13.064Z,1.83
2018-08-13T15:19:41.659Z,2.20
2018-08-13T15:22:10.331Z,1.87
2018-08-13T15:24:40.496Z,1.80
2018-08-13T15:27:10.295Z,3.50
2018-08-13T15:29:38.895Z,2.77
2018-08-13T15:32:09.570Z,2.47
2018-08-13T15:34:39.396Z,2.47
2018-08-13T15:37:07.958Z,2.70
2018-08-13T15:39:36.538Z,2.13
2018-08-13T15:42:05.117Z,2.43
2018-08-13T15:44:33.639Z,2.20
2018-08-13T15:47:16.867Z,2.17
2018-08-13T15:49:45.395Z,2.57
2018-08-13T15:52:13.964Z,2.23
2018-08-13T15:54:42.499Z,2.30
2018-08-13T15:57:11.147Z,2.37
2018-08-13T15:59:39.830Z,2.10
2018-08-13T16:02:08.418Z,2.17
2018-08-13T16:04:36.997Z,1.77
2018-08-13T16:07:08.139Z,2.20
2018-08-13T16:09:36.680Z,2.00
2018-08-13T16:12:05.259Z,2.27
2018-08-13T16:14:33.819Z,2.70
2018-08-13T16:17:02.418Z,2.27
2018-08-13T16:19:44.110Z,1.90
2018-08-13T16:22:14.287Z,2.03
2018-08-13T16:24:46.351Z,1.87
2018-08-13T16:27:16.111Z,2.03
2018-08-13T16:29:49.818Z,1.90
2018-08-13T16:32:20.431Z,2.03
2018-08-13T16:34:50.227Z,1.73
2018-08-13T16:37:22.543Z,2.23
2018-08-13T16:39:51.083Z,2.00
2018-08-13T16:42:19.655Z,2.37
2018-08-13T16:44:54.421Z,2.20
2018-08-13T16:47:24.876Z,1.77
2018-08-13T16:49:59.519Z,1.67
2018-08-13T16:52:30.356Z,1.90
2018-08-13T16:54:59.146Z,1.83
2018-08-13T16:57:28.422Z,1.53
2018-08-13T16:59:59.979Z,1.67
2018-08-13T17:02:30.045Z,1.90
2018-08-13T17:04:58.616Z,1.60
2018-08-13T17:07:27.452Z,1.80
2018-08-13T17:09:56.055Z,1.83
2018-08-13T17:12:24.588Z,1.50
2018-08-13T17:14:53.163Z,1.80
2018-08-13T17:17:21.752Z,1.77
2018-08-13T17:19:50.335Z,1.70
2018-08-13T17:22:18.948Z,1.73
2018-08-13T17:24:47.509Z,1.60
2018-08-13T17:27:16.078Z,1.90
2018-08-13T17:29:44.632Z,1.80
2018-08-13T17:32:13.211Z,1.90
2018-08-13T17:34:41.747Z,1.67
2018-08-13T17:37:10.330Z,1.67
2018-08-13T17:39:38.876Z,1.80
2018-08-13T17:42:07.445Z,1.63
2018-08-13T17:44:36.012Z,1.70
2018-08-13T17:47:05.019Z,1.50
2018-08-13T17:49:33.576Z,1.50
2018-08-13T17:52:02.148Z,1.63
2018-08-13T17:54:30.718Z,1.70
2018-08-13T17:56:59.347Z,1.77
2018-08-13T17:59:27.918Z,1.50
2018-08-13T18:01:56.565Z,1.60
2018-08-13T18:04:25.039Z,1.57
2018-08-13T18:06:53.592Z,1.50
2018-08-13T18:09:22.347Z,1.47
2018-08-13T18:11:50.894Z,1.80
2018-08-13T18:14:19.479Z,1.70
2018-08-13T18:16:48.034Z,1.90
2018-08-13T18:19:16.609Z,1.20
2018-08-13T18:21:45.197Z,1.50
2018-08-13T18:24:13.772Z,1.80
2018-08-13T18:26:42.308Z,1.40
2018-08-13T18:29:10.872Z,1.92
2018-08-13T18:31:39.485Z,1.57
2018-08-13T18:34:08.360Z,1.50
2018-08-13T18:36:36.940Z,2.02
2018-08-13T18:39:07.141Z,1.70
2018-08-13T18:41:35.712Z,1.50
2018-08-13T18:44:11.080Z,1.52
2018-08-13T18:46:39.759Z,1.40
2018-08-13T18:49:08.363Z,1.60
2018-08-13T18:51:36.951Z,1.77
2018-08-13T18:54:05.506Z,1.85
2018-08-13T18:56:34.085Z,1.70
2018-08-13T18:59:02.661Z,1.70
2018-08-13T19:01:31.415Z,1.60
2018-08-13T19:04:00.067Z,1.37
2018-08-13T19:06:28.632Z,1.70
2018-08-13T19:08:57.862Z,1.77
2018-08-13T19:11:26.479Z,1.40
2018-08-13T19:13:55.047Z,1.42
2018-08-13T19:16:23.583Z,1.82
2018-08-13T19:18:52.120Z,1.60
2018-08-13T19:21:20.643Z,1.70
2018-08-13T19:23:49.291Z,1.62
2018-08-13T19:26:17.902Z,1.65
2018-08-13T19:28:46.523Z,1.42
2018-08-13T19:31:15.697Z,1.57
2018-08-13T19:33:44.390Z,1.57
2018-08-13T19:36:12.932Z,1.70
2018-08-13T19:38:41.496Z,1.50
2018-08-13T19:41:10.089Z,1.65
2018-08-13T19:43:38.667Z,1.85
2018-08-13T19:46:07.544Z,1.45
2018-08-13T19:48:36.018Z,1.40
2018-08-13T19:51:04.616Z,1.75
2018-08-13T19:53:33.268Z,1.60
2018-08-13T19:56:01.882Z,1.72
2018-08-13T19:58:30.468Z,1.52
2018-08-13T20:00:59.055Z,1.65
2018-08-13T20:03:27.639Z,1.50
2018-08-13T20:05:56.221Z,1.75
2018-08-13T20:08:24.773Z,1.72
2018-08-13T20:10:53.342Z,1.50
2018-08-13T20:13:21.898Z,1.50
2018-08-13T20:15:50.467Z,1.60
2018-08-13T20:18:19.021Z,1.25
2018-08-13T20:20:47.600Z,1.50
2018-08-13T20:23:16.143Z,1.50
2018-08-13T20:25:44.712Z,1.87
2018-08-13T20:28:13.264Z,1.82
2018-08-13T20:30:41.846Z,1.50
2018-08-13T20:33:10.491Z,1.70
2018-08-13T20:35:39.079Z,1.80
2018-08-13T20:38:07.666Z,2.00
2018-08-13T20:40:36.208Z,1.72
2018-08-13T20:43:04.763Z,1.70
2018-08-13T20:45:33.370Z,1.90
2018-08-13T20:48:01.929Z,2.00
2018-08-13T20:50:30.480Z,1.80
2018-08-13T20:52:59.063Z,1.75
2018-08-13T20:55:28.866Z,2.10
2018-08-13T20:57:57.487Z,1.70
2018-08-13T21:00:27.706Z,1.60
2018-08-13T21:02:56.240Z,1.70
2018-08-13T21:05:24.834Z,1.70
2018-08-13T21:07:53.388Z,1.80
2018-08-13T21:10:23.439Z,1.70
2018-08-13T21:12:52.177Z,1.80
2018-08-13T21:15:20.770Z,1.90
2018-08-13T21:17:49.396Z,1.67
2018-08-13T21:20:26.631Z,1.85
2018-08-13T21:22:55.495Z,1.70
2018-08-13T21:25:24.048Z,1.70
2018-08-13T21:27:52.882Z,1.70
2018-08-13T21:30:52.256Z,1.72
2018-08-13T21:33:20.838Z,2.08
2018-08-13T21:35:49.412Z,1.98
2018-08-13T21:38:17.971Z,2.00
2018-08-13T21:40:46.551Z,1.72
2018-08-13T21:43:15.302Z,1.98
2018-08-13T21:45:43.886Z,1.80
2018-08-13T21:48:12.443Z,1.90
2018-08-13T21:50:41.081Z,1.60
2018-08-13T21:53:09.635Z,1.72
2018-08-13T21:55:38.198Z,1.60
2018-08-13T21:58:06.776Z,1.70
2018-08-13T22:00:40.751Z,1.85
2018-08-13T22:03:10.350Z,1.80
2018-08-13T22:05:38.944Z,1.92
2018-08-13T22:08:07.525Z,1.90
2018-08-13T22:10:36.077Z,1.90
2018-08-13T22:13:04.631Z,1.92
2018-08-13T22:15:33.739Z,1.60
2018-08-13T22:18:04.819Z,1.95
2018-08-13T22:20:34.583Z,1.90
2018-08-13T22:23:04.945Z,1.92
2018-08-13T22:25:35.639Z,1.80
2018-08-13T22:28:06.124Z,2.27
2018-08-13T22:30:39.975Z,2.05
2018-08-13T22:33:09.608Z,2.22
2018-08-13T22:35:38.210Z,2.10
2018-08-13T22:38:07.368Z,2.05
2018-08-13T22:40:36.335Z,2.00
2018-08-13T22:43:05.068Z,2.00
2018-08-13T22:45:33.496Z,2.00
2018-08-13T22:50:37.165Z,1.80
2018-08-13T22:53:05.930Z,1.80
2018-08-13T22:55:34.677Z,1.77
2018-08-13T22:58:03.300Z,2.10
2018-08-13T23:00:31.846Z,1.85
2018-08-13T23:03:00.379Z,1.77
2018-08-13T23:05:29.223Z,1.80
2018-08-13T23:07:57.738Z,1.82
2018-08-13T23:10:26.439Z,1.85
2018-08-13T23:12:56.363Z,1.90
2018-08-13T23:15:25.041Z,2.00
2018-08-13T23:17:54.198Z,2.15
2018-08-13T23:20:24.551Z,1.80
2018-08-13T23:22:57.299Z,2.12
2018-08-13T23:25:26.139Z,2.10
2018-08-13T23:27:55.751Z,2.12
2018-08-13T23:30:24.426Z,1.98
2018-08-13T23:32:54.047Z,1.72
2018-08-13T23:35:23.376Z,1.72
2018-08-13T23:37:52.050Z,2.08
2018-08-13T23:40:20.599Z,2.22
2018-08-13T23:42:49.153Z,2.05
2018-08-13T23:45:20.777Z,1.62
2018-08-13T23:47:49.403Z,2.00
2018-08-13T23:50:20.592Z,2.10
2018-08-13T23:52:50.275Z,1.50
2018-08-13T23:55:26.156Z,2.00
2018-08-13T23:57:55.018Z,1.70
